createdAt,value
2023-05-16T00:01:23.232Z,10.90
2023-05-16T00:03:50.309Z,10.90
2023-05-16T00:06:18.755Z,10.80
2023-05-16T00:08:45.714Z,10.70
2023-05-16T00:11:12.709Z,10.70
2023-05-16T00:13:42.656Z,10.70
2023-05-16T00:16:10.066Z,10.80
2023-05-16T00:18:37.974Z,10.80
2023-05-16T00:21:05.945Z,10.80
2023-05-16T00:23:33.467Z,10.70
2023-05-16T00:26:00.464Z,10.70
2023-05-16T00:28:27.517Z,10.70
2023-05-16T00:30:54.634Z,10.70
2023-05-16T00:33:21.661Z,10.50
2023-05-16T00:35:49.297Z,10.70
2023-05-16T00:38:16.172Z,10.80
2023-05-16T00:40:43.248Z,10.80
2023-05-16T00:43:10.798Z,10.80
2023-05-16T00:45:37.939Z,10.90
2023-05-16T00:48:05.241Z,10.80
2023-05-16T00:50:34.427Z,10.80
2023-05-16T00:53:01.454Z,10.90
2023-05-16T00:55:28.660Z,10.80
2023-05-16T00:57:56.147Z,10.70
2023-05-16T01:00:23.217Z,10.70
2023-05-16T01:02:53.498Z,10.60
2023-05-16T01:05:21.338Z,10.50
2023-05-16T01:07:48.451Z,10.50
2023-05-16T01:10:16.280Z,10.60
2023-05-16T01:13:12.755Z,10.60
2023-05-16T01:16:03.037Z,10.70
2023-05-16T01:18:51.008Z,10.70
2023-05-16T01:21:39.180Z,10.80
2023-05-16T01:24:32.670Z,10.70
2023-05-16T01:27:00.810Z,10.70
2023-05-16T01:29:27.930Z,10.70
2023-05-16T01:31:54.917Z,10.60
2023-05-16T01:34:21.988Z,10.50
2023-05-16T01:37:12.703Z,10.60
2023-05-16T01:39:54.606Z,10.70
2023-05-16T01:42:27.328Z,10.60
2023-05-16T01:45:04.644Z,10.50
2023-05-16T01:47:33.519Z,10.40
2023-05-16T01:50:17.784Z,10.30
2023-05-16T01:52:59.019Z,10.30
2023-05-16T01:55:49.307Z,10.30
2023-05-16T01:58:20.693Z,10.20
2023-05-16T02:00:47.588Z,10.20
2023-05-16T02:03:15.008Z,10.20
2023-05-16T02:05:42.421Z,10.20
2023-05-16T02:08:09.428Z,10.10
2023-05-16T02:10:36.197Z,10.10
2023-05-16T02:13:03.111Z,10.10
2023-05-16T02:15:30.427Z,10.20
2023-05-16T02:17:58.689Z,10.20
2023-05-16T02:20:25.823Z,10.20
2023-05-16T02:22:52.654Z,10.20
2023-05-16T02:25:19.618Z,10.20
2023-05-16T02:27:46.652Z,10.20
2023-05-16T02:30:13.848Z,10.20
2023-05-16T02:32:41.296Z,10.20
2023-05-16T02:35:08.453Z,10.20
2023-05-16T02:37:35.689Z,10.20
2023-05-16T02:40:05.778Z,10.10
2023-05-16T02:42:33.118Z,10.00
2023-05-16T02:45:00.152Z,10.00
2023-05-16T02:47:27.580Z,10.10
2023-05-16T02:49:54.603Z,10.00
2023-05-16T02:52:21.594Z,9.90
2023-05-16T02:54:56.131Z,10.00
2023-05-16T02:57:35.548Z,9.90
2023-05-16T03:00:02.541Z,10.10
2023-05-16T03:02:29.387Z,10.00
2023-05-16T03:04:56.388Z,10.10
2023-05-16T03:07:23.270Z,10.00
2023-05-16T03:09:50.078Z,10.00
2023-05-16T03:12:17.804Z,10.00
2023-05-16T03:14:45.349Z,10.10
2023-05-16T03:17:12.237Z,10.00
2023-05-16T03:19:39.612Z,10.00
2023-05-16T03:22:06.500Z,9.90
2023-05-16T03:24:33.344Z,9.90
2023-05-16T03:27:01.066Z,9.80
2023-05-16T03:29:27.918Z,9.70
2023-05-16T03:31:55.365Z,9.60
2023-05-16T03:34:22.487Z,9.60
2023-05-16T03:36:53.578Z,9.60
2023-05-16T03:39:20.755Z,9.70
2023-05-16T03:41:47.909Z,9.80
2023-05-16T03:44:14.853Z,9.70
2023-05-16T03:46:41.759Z,9.90
2023-05-16T03:49:08.744Z,10.20
2023-05-16T03:51:35.576Z,10.20
2023-05-16T03:54:02.616Z,10.20
2023-05-16T03:56:29.476Z,10.00
2023-05-16T03:58:56.404Z,9.90
2023-05-16T04:01:23.262Z,9.90
2023-05-16T04:03:51.197Z,9.90
2023-05-16T04:06:18.340Z,9.90
2023-05-16T04:08:45.690Z,9.80
2023-05-16T04:11:12.617Z,9.80
2023-05-16T04:13:39.735Z,9.70
2023-05-16T04:16:07.474Z,9.80
2023-05-16T04:18:34.945Z,9.80
2023-05-16T04:21:01.951Z,9.70
2023-05-16T04:23:28.857Z,9.70
2023-05-16T04:25:57.088Z,9.80
2023-05-16T04:28:23.927Z,9.80
2023-05-16T04:30:51.401Z,9.80
2023-05-16T04:33:19.215Z,9.80
2023-05-16T04:35:46.483Z,9.90
2023-05-16T04:38:13.664Z,9.90
2023-05-16T04:40:41.911Z,10.00
2023-05-16T04:43:09.269Z,9.90
2023-05-16T04:45:37.820Z,9.90
2023-05-16T04:48:05.493Z,10.00
2023-05-16T04:50:32.535Z,10.00
2023-05-16T04:52:59.810Z,10.10
2023-05-16T04:55:27.634Z,10.10
2023-05-16T04:57:54.702Z,10.10
2023-05-16T05:00:22.104Z,10.10
2023-05-16T05:02:50.838Z,10.00
2023-05-16T05:05:17.963Z,9.90
2023-05-16T05:07:44.924Z,9.90
2023-05-16T05:10:12.427Z,9.90
2023-05-16T05:12:39.287Z,10.10
2023-05-16T05:15:07.172Z,10.30
2023-05-16T05:17:36.425Z,10.30
2023-05-16T05:20:06.998Z,10.40
2023-05-16T05:22:34.112Z,10.50
2023-05-16T05:25:01.089Z,10.60
2023-05-16T05:27:28.002Z,10.50
2023-05-16T05:29:55.037Z,10.60
2023-05-16T05:32:21.928Z,10.80
2023-05-16T05:34:50.020Z,10.70
2023-05-16T05:37:16.895Z,10.70
2023-05-16T05:39:43.797Z,10.90
2023-05-16T05:42:12.073Z,11.00
2023-05-16T05:44:39.029Z,11.00
2023-05-16T05:47:07.230Z,11.20
2023-05-16T05:49:34.741Z,11.30
2023-05-16T05:52:04.743Z,11.40
2023-05-16T05:54:31.799Z,11.40
2023-05-16T05:56:58.776Z,11.40
2023-05-16T05:59:25.977Z,11.60
2023-05-16T06:01:53.246Z,11.60
2023-05-16T06:04:21.364Z,11.60
2023-05-16T06:06:48.554Z,11.60
2023-05-16T06:09:15.726Z,11.80
2023-05-16T06:11:45.901Z,11.80
2023-05-16T06:14:16.360Z,11.90
2023-05-16T06:16:43.765Z,12.00
2023-05-16T06:19:12.522Z,12.10
2023-05-16T06:21:39.703Z,12.20
2023-05-16T06:24:06.928Z,12.30
2023-05-16T06:26:34.409Z,12.30
2023-05-16T06:29:01.793Z,12.40
2023-05-16T06:31:28.929Z,12.50
2023-05-16T06:33:56.558Z,12.60
2023-05-16T06:36:23.470Z,12.70
2023-05-16T06:38:50.988Z,12.70
2023-05-16T06:41:17.964Z,12.60
2023-05-16T06:43:44.951Z,12.70
2023-05-16T06:46:12.047Z,12.80
2023-05-16T06:48:39.057Z,12.80
2023-05-16T06:51:06.275Z,13.10
2023-05-16T06:53:34.434Z,13.10
2023-05-16T06:56:01.522Z,13.30
2023-05-16T06:58:28.583Z,13.60
2023-05-16T07:00:55.874Z,13.50
2023-05-16T07:03:23.019Z,13.60
2023-05-16T07:05:54.458Z,13.60
2023-05-16T07:08:21.347Z,13.50
2023-05-16T07:10:48.360Z,13.40
2023-05-16T07:13:15.395Z,13.30
2023-05-16T07:15:42.263Z,13.30
2023-05-16T07:18:09.178Z,13.40
2023-05-16T07:20:36.551Z,13.40
2023-05-16T07:23:03.495Z,13.30
2023-05-16T07:25:30.607Z,13.20
2023-05-16T07:27:58.376Z,13.20
2023-05-16T07:30:25.325Z,13.30
2023-05-16T07:32:52.427Z,13.30
2023-05-16T07:35:19.471Z,13.40
2023-05-16T07:37:47.746Z,13.60
2023-05-16T07:40:15.104Z,13.70
2023-05-16T07:42:43.642Z,13.80
2023-05-16T07:45:10.673Z,13.70
2023-05-16T07:47:37.617Z,13.90
2023-05-16T07:50:05.195Z,14.10
2023-05-16T07:52:33.938Z,14.40
2023-05-16T07:55:00.940Z,14.50
2023-05-16T07:57:28.883Z,14.60
2023-05-16T07:59:56.058Z,14.60
2023-05-16T08:02:30.686Z,14.70
2023-05-16T08:04:58.288Z,14.80
2023-05-16T08:07:26.047Z,14.90
2023-05-16T08:09:53.097Z,15.00
2023-05-16T08:12:20.026Z,15.20
2023-05-16T08:14:47.202Z,15.50
2023-05-16T08:17:14.382Z,15.60
2023-05-16T08:19:41.608Z,15.70
2023-05-16T08:22:09.992Z,16.00
2023-05-16T08:24:36.951Z,16.20
2023-05-16T08:27:04.318Z,16.40
2023-05-16T08:29:31.918Z,16.40
2023-05-16T08:31:59.302Z,16.30
2023-05-16T08:34:26.481Z,16.60
2023-05-16T08:36:54.749Z,16.50
2023-05-16T08:39:22.440Z,16.40
2023-05-16T08:41:50.852Z,16.50
2023-05-16T08:44:22.043Z,16.40
2023-05-16T08:46:57.096Z,16.60
2023-05-16T08:49:29.161Z,16.70
2023-05-16T08:51:58.337Z,17.00
2023-05-16T08:54:27.957Z,17.20
2023-05-16T08:56:56.229Z,17.60
2023-05-16T08:59:23.334Z,17.90
2023-05-16T09:01:50.480Z,18.20
2023-05-16T09:04:17.802Z,18.30
2023-05-16T09:06:45.608Z,18.40
2023-05-16T09:09:13.073Z,18.50
2023-05-16T09:11:40.362Z,18.70
2023-05-16T09:14:07.474Z,18.90
2023-05-16T09:16:34.466Z,19.10
2023-05-16T09:19:02.324Z,19.50
2023-05-16T09:21:34.849Z,19.60
2023-05-16T09:24:08.994Z,19.50
2023-05-16T09:26:39.121Z,19.50
2023-05-16T09:29:13.220Z,19.50
2023-05-16T09:31:40.591Z,19.50
2023-05-16T09:34:12.897Z,19.30
2023-05-16T09:36:42.915Z,19.40
2023-05-16T09:39:12.386Z,19.70
2023-05-16T09:41:39.551Z,20.10
2023-05-16T09:44:07.242Z,20.40
2023-05-16T09:46:38.877Z,20.60
2023-05-16T09:49:06.398Z,20.70
2023-05-16T09:51:34.681Z,20.90
2023-05-16T09:54:01.820Z,21.00
2023-05-16T09:56:30.216Z,20.90
2023-05-16T09:58:57.338Z,20.90
2023-05-16T10:01:25.350Z,20.80
2023-05-16T10:03:52.948Z,20.90
2023-05-16T10:06:20.721Z,20.70
2023-05-16T10:08:48.653Z,20.10
2023-05-16T10:11:18.376Z,19.80
2023-05-16T10:13:50.544Z,19.40
2023-05-16T10:16:18.791Z,19.80
2023-05-16T10:18:46.211Z,20.50
2023-05-16T10:21:18.207Z,20.80
2023-05-16T10:23:49.193Z,21.10
2023-05-16T10:26:17.795Z,21.10
2023-05-16T10:28:45.565Z,21.40
2023-05-16T10:31:14.714Z,21.20
2023-05-16T10:33:42.265Z,21.30
2023-05-16T10:36:11.190Z,21.00
2023-05-16T10:38:41.579Z,20.80
2023-05-16T10:41:09.569Z,20.90
2023-05-16T10:43:36.888Z,21.20
2023-05-16T10:46:05.006Z,21.20
2023-05-16T10:48:36.997Z,21.30
2023-05-16T10:51:24.583Z,21.60
2023-05-16T10:53:53.643Z,22.00
2023-05-16T10:56:25.528Z,22.20
2023-05-16T10:58:54.644Z,22.80
2023-05-16T11:01:24.735Z,22.80
2023-05-16T11:04:00.833Z,22.50
2023-05-16T11:06:31.260Z,22.70
2023-05-16T11:09:14.488Z,22.90
2023-05-16T11:12:00.657Z,22.70
2023-05-16T11:14:32.653Z,22.70
2023-05-16T11:17:35.364Z,22.80
2023-05-16T11:20:04.254Z,23.30
2023-05-16T11:22:41.066Z,23.50
2023-05-16T11:25:10.726Z,23.70
2023-05-16T11:27:43.279Z,24.10
2023-05-16T11:30:10.231Z,24.30
2023-05-16T11:32:39.353Z,23.70
2023-05-16T11:35:09.608Z,23.00
2023-05-16T11:37:39.458Z,22.20
2023-05-16T11:40:08.657Z,22.30
2023-05-16T11:42:43.290Z,22.60
2023-05-16T11:45:12.829Z,23.00
2023-05-16T11:47:41.061Z,23.40
2023-05-16T11:50:13.044Z,23.40
2023-05-16T11:52:40.936Z,24.00
2023-05-16T11:55:11.573Z,24.20
2023-05-16T11:57:39.415Z,24.40
2023-05-16T12:00:20.302Z,24.90
2023-05-16T12:02:49.830Z,24.70
2023-05-16T12:05:18.235Z,23.80
2023-05-16T12:07:47.796Z,23.00
2023-05-16T12:10:16.157Z,22.20
2023-05-16T12:12:46.427Z,21.90
2023-05-16T12:15:15.538Z,22.20
2023-05-16T12:17:43.237Z,22.40
2023-05-16T12:20:17.470Z,22.90
2023-05-16T12:22:46.027Z,22.90
2023-05-16T12:25:23.857Z,22.70
2023-05-16T12:27:51.497Z,22.80
2023-05-16T12:30:19.539Z,23.30
2023-05-16T12:32:47.379Z,23.50
2023-05-16T12:35:17.022Z,23.50
2023-05-16T12:37:44.309Z,23.40
2023-05-16T12:40:13.496Z,23.50
2023-05-16T12:42:40.491Z,24.00
2023-05-16T12:45:18.737Z,23.90
2023-05-16T12:47:47.190Z,23.70
2023-05-16T12:50:16.529Z,23.40
2023-05-16T12:53:00.135Z,23.40
2023-05-16T12:55:27.505Z,23.70
2023-05-16T12:57:57.055Z,24.00
2023-05-16T13:00:24.843Z,24.40
2023-05-16T13:02:52.434Z,24.80
2023-05-16T13:05:20.661Z,24.60
2023-05-16T13:07:47.717Z,24.70
2023-05-16T13:10:14.668Z,24.50
2023-05-16T13:12:42.210Z,24.00
2023-05-16T13:15:11.044Z,24.00
2023-05-16T13:17:39.159Z,23.60
2023-05-16T13:20:10.459Z,23.30
2023-05-16T13:22:37.770Z,23.80
2023-05-16T13:25:06.436Z,23.90
2023-05-16T13:27:34.390Z,24.10
2023-05-16T13:30:02.707Z,24.40
2023-05-16T13:32:29.808Z,24.50
2023-05-16T13:34:57.104Z,24.80
2023-05-16T13:37:26.863Z,24.60
2023-05-16T13:39:54.895Z,24.00
2023-05-16T13:42:22.432Z,24.00
2023-05-16T13:44:51.637Z,24.20
2023-05-16T13:47:18.649Z,24.40
2023-05-16T13:49:45.878Z,24.30
2023-05-16T13:52:13.067Z,24.30
2023-05-16T13:54:41.751Z,24.20
2023-05-16T13:57:08.930Z,24.00
2023-05-16T14:02:06.392Z,23.80
2023-05-16T14:04:33.512Z,23.60
2023-05-16T14:07:00.757Z,23.70
2023-05-16T14:09:27.898Z,24.20
2023-05-16T14:11:55.143Z,24.30
2023-05-16T14:14:22.345Z,24.40
2023-05-16T14:16:49.622Z,24.50
2023-05-16T14:19:19.107Z,24.70
2023-05-16T14:21:48.274Z,24.60
2023-05-16T14:24:15.148Z,24.70
2023-05-16T14:26:42.146Z,25.10
2023-05-16T14:29:09.165Z,25.00
2023-05-16T14:31:38.941Z,24.90
2023-05-16T14:34:06.075Z,25.10
2023-05-16T14:36:33.128Z,25.00
2023-05-16T14:39:00.554Z,25.20
2023-05-16T14:41:27.620Z,25.10
2023-05-16T14:43:56.204Z,25.20
2023-05-16T14:46:23.318Z,25.20
2023-05-16T14:48:51.076Z,25.20
2023-05-16T14:51:18.137Z,25.70
2023-05-16T14:53:47.010Z,25.60
2023-05-16T14:56:18.813Z,25.20
2023-05-16T14:58:45.974Z,24.80
2023-05-16T15:01:13.111Z,24.60
2023-05-16T15:03:53.521Z,24.40
2023-05-16T15:06:22.831Z,24.40
2023-05-16T15:08:53.730Z,24.50
2023-05-16T15:11:21.904Z,24.50
2023-05-16T15:13:48.823Z,24.50
2023-05-16T15:16:16.474Z,24.10
2023-05-16T15:18:43.816Z,24.50
2023-05-16T15:21:11.145Z,25.10
2023-05-16T15:23:38.196Z,24.90
2023-05-16T15:26:05.651Z,25.20
2023-05-16T15:28:32.674Z,25.10
2023-05-16T15:30:59.789Z,24.80
2023-05-16T15:33:26.969Z,24.20
2023-05-16T15:35:54.218Z,23.90
2023-05-16T15:38:22.939Z,24.10
2023-05-16T15:40:55.328Z,24.10
2023-05-16T15:43:25.056Z,24.30
2023-05-16T15:45:52.806Z,23.90
2023-05-16T15:48:20.019Z,23.90
2023-05-16T15:50:47.456Z,23.90
2023-05-16T15:53:14.661Z,23.90
2023-05-16T15:55:42.606Z,24.20
2023-05-16T15:58:09.814Z,23.80
2023-05-16T16:00:36.898Z,23.30
2023-05-16T16:03:05.052Z,23.40
2023-05-16T16:05:32.171Z,23.30
2023-05-16T16:07:59.160Z,23.10
2023-05-16T16:10:27.306Z,22.70
2023-05-16T16:13:04.769Z,22.80
2023-05-16T16:15:33.488Z,22.90
2023-05-16T16:18:01.296Z,22.90
2023-05-16T16:20:28.590Z,22.90
2023-05-16T16:22:55.705Z,22.70
2023-05-16T16:25:23.072Z,22.70
2023-05-16T16:27:50.989Z,22.50
2023-05-16T16:30:54.240Z,22.10
2023-05-16T16:33:24.541Z,21.90
2023-05-16T16:35:52.931Z,21.50
2023-05-16T16:38:19.954Z,21.60
2023-05-16T16:40:47.150Z,21.70
2023-05-16T16:43:14.855Z,21.80
2023-05-16T16:45:41.716Z,21.60
2023-05-16T16:48:11.892Z,21.40
2023-05-16T16:50:39.003Z,21.50
2023-05-16T16:53:07.393Z,21.40
2023-05-16T16:55:34.480Z,21.20
2023-05-16T16:58:02.347Z,20.90
2023-05-16T17:00:29.586Z,20.90
2023-05-16T17:02:57.117Z,20.70
2023-05-16T17:05:24.230Z,20.60
2023-05-16T17:07:52.543Z,20.50
2023-05-16T17:10:20.990Z,20.50
2023-05-16T17:12:49.880Z,20.10
2023-05-16T17:15:17.771Z,19.70
2023-05-16T17:17:46.073Z,19.70
2023-05-16T17:20:13.441Z,19.40
2023-05-16T17:22:40.745Z,19.40
2023-05-16T17:25:08.184Z,19.30
2023-05-16T17:27:35.252Z,19.40
2023-05-16T17:30:02.388Z,19.20
2023-05-16T17:32:29.338Z,19.10
2023-05-16T17:34:56.422Z,19.10
2023-05-16T17:37:23.353Z,19.00
2023-05-16T17:39:53.349Z,18.90
2023-05-16T17:42:20.511Z,19.00
2023-05-16T17:44:47.665Z,18.80
2023-05-16T17:47:14.959Z,18.80
2023-05-16T17:49:42.647Z,18.90
2023-05-16T17:52:11.775Z,18.80
2023-05-16T17:54:38.945Z,18.60
2023-05-16T17:57:07.077Z,18.40
2023-05-16T17:59:34.080Z,18.50
2023-05-16T18:02:01.017Z,18.50
2023-05-16T18:04:28.030Z,18.50
2023-05-16T18:06:56.356Z,18.50
2023-05-16T18:09:23.538Z,18.50
2023-05-16T18:11:50.770Z,18.60
2023-05-16T18:14:18.086Z,18.60
2023-05-16T18:16:45.342Z,18.60
2023-05-16T18:19:12.736Z,18.50
2023-05-16T18:21:40.285Z,18.40
2023-05-16T18:24:08.778Z,18.50
2023-05-16T18:26:36.164Z,18.40
2023-05-16T18:29:03.790Z,18.30
2023-05-16T18:31:33.719Z,18.30
2023-05-16T18:34:03.994Z,18.00
2023-05-16T18:36:31.758Z,17.90
2023-05-16T18:39:01.170Z,18.10
2023-05-16T18:41:28.366Z,18.00
2023-05-16T18:43:55.449Z,18.00
2023-05-16T18:46:22.387Z,17.80
2023-05-16T18:48:49.562Z,17.90
2023-05-16T18:51:16.771Z,17.80
2023-05-16T18:53:43.752Z,17.70
2023-05-16T18:56:12.537Z,17.60
2023-05-16T18:58:39.479Z,17.70
2023-05-16T19:01:09.691Z,17.70
2023-05-16T19:03:36.889Z,17.60
2023-05-16T19:06:04.380Z,17.50
2023-05-16T19:08:44.199Z,17.50
2023-05-16T19:11:14.805Z,17.60
2023-05-16T19:13:41.786Z,17.40
2023-05-16T19:16:09.309Z,17.40
2023-05-16T19:18:37.167Z,17.30
2023-05-16T19:21:04.510Z,17.30
2023-05-16T19:23:31.848Z,17.00
2023-05-16T19:25:58.915Z,16.90
2023-05-16T19:28:25.962Z,16.90
2023-05-16T19:30:52.867Z,16.80
2023-05-16T19:33:21.608Z,16.70
2023-05-16T19:35:51.588Z,16.70
2023-05-16T19:38:22.411Z,16.70
2023-05-16T19:40:49.404Z,16.70
2023-05-16T19:43:16.749Z,16.70
2023-05-16T19:45:43.835Z,16.70
2023-05-16T19:48:11.168Z,16.60
2023-05-16T19:50:38.300Z,16.70
2023-05-16T19:53:05.665Z,16.60
2023-05-16T19:55:35.201Z,16.40
2023-05-16T19:58:04.032Z,16.20
2023-05-16T20:00:31.046Z,16.10
2023-05-16T20:02:58.122Z,16.20
2023-05-16T20:05:25.290Z,16.10
2023-05-16T20:07:56.184Z,16.10
2023-05-16T20:10:23.338Z,16.00
2023-05-16T20:12:50.420Z,15.90
2023-05-16T20:15:20.659Z,15.80
2023-05-16T20:17:47.690Z,15.70
2023-05-16T20:20:14.768Z,15.60
2023-05-16T20:22:42.090Z,15.60
2023-05-16T20:25:10.417Z,15.60
2023-05-16T20:27:38.028Z,15.60
2023-05-16T20:30:06.856Z,15.60
2023-05-16T20:32:34.488Z,15.60
2023-05-16T20:35:04.367Z,15.70
2023-05-16T20:37:31.523Z,15.60
2023-05-16T20:39:58.525Z,15.50
2023-05-16T20:42:25.477Z,15.40
2023-05-16T20:44:52.440Z,15.50
2023-05-16T20:47:19.562Z,15.50
2023-05-16T20:49:46.558Z,15.50
2023-05-16T20:52:14.514Z,15.40
2023-05-16T20:54:42.310Z,15.30
2023-05-16T20:57:10.344Z,15.40
2023-05-16T20:59:40.071Z,15.30
2023-05-16T21:02:11.731Z,15.30
2023-05-16T21:04:39.241Z,15.30
2023-05-16T21:07:08.421Z,15.20
2023-05-16T21:09:37.139Z,15.20
2023-05-16T21:12:04.848Z,15.20
2023-05-16T21:14:31.827Z,15.20
2023-05-16T21:16:59.700Z,15.20
2023-05-16T21:19:26.730Z,15.00
2023-05-16T21:21:53.675Z,14.80
2023-05-16T21:24:21.532Z,14.90
2023-05-16T21:26:48.374Z,14.90
2023-05-16T21:29:15.310Z,14.90
2023-05-16T21:31:42.188Z,14.90
2023-05-16T21:34:09.720Z,14.90
2023-05-16T21:36:36.874Z,14.80
2023-05-16T21:39:03.812Z,14.60
2023-05-16T21:41:30.860Z,14.70
2023-05-16T21:43:57.675Z,14.70
2023-05-16T21:46:24.917Z,14.60
2023-05-16T21:48:51.790Z,14.60
2023-05-16T21:51:19.508Z,14.60
2023-05-16T21:53:47.451Z,14.50
2023-05-16T21:56:14.428Z,14.30
2023-05-16T21:58:42.454Z,14.40
2023-05-16T22:01:09.813Z,14.30
2023-05-16T22:03:37.150Z,14.30
2023-05-16T22:06:04.305Z,14.30
2023-05-16T22:08:32.137Z,14.30
2023-05-16T22:10:59.158Z,14.10
2023-05-16T22:13:26.262Z,14.10
2023-05-16T22:16:03.980Z,14.10
2023-05-16T22:18:32.392Z,13.90
2023-05-16T22:20:59.727Z,13.90
2023-05-16T22:23:27.709Z,13.80
2023-05-16T22:25:54.668Z,13.90
2023-05-16T22:28:21.615Z,13.80
2023-05-16T22:30:48.491Z,13.70
2023-05-16T22:33:15.589Z,13.70
2023-05-16T22:35:43.298Z,13.60
2023-05-16T22:38:10.204Z,13.60
2023-05-16T22:40:37.886Z,13.60
2023-05-16T22:43:04.848Z,13.50
2023-05-16T22:45:31.776Z,13.40
2023-05-16T22:47:58.801Z,13.40
2023-05-16T22:50:25.905Z,13.40
2023-05-16T22:52:56.429Z,13.40
2023-05-16T22:55:23.472Z,13.30
2023-05-16T22:57:50.570Z,13.40
2023-05-16T23:00:22.769Z,13.30
2023-05-16T23:02:50.273Z,13.40
2023-05-16T23:05:17.534Z,13.30
2023-05-16T23:07:44.407Z,13.20
2023-05-16T23:10:11.381Z,13.20
2023-05-16T23:12:39.218Z,13.20
2023-05-16T23:15:10.111Z,13.20
2023-05-16T23:17:40.823Z,13.30
2023-05-16T23:20:10.793Z,13.10
2023-05-16T23:22:37.620Z,13.00
2023-05-16T23:25:05.451Z,13.10
2023-05-16T23:27:32.577Z,13.20
2023-05-16T23:29:59.711Z,13.10
2023-05-16T23:32:26.653Z,13.00
2023-05-16T23:34:54.458Z,13.10
2023-05-16T23:37:21.542Z,13.00
2023-05-16T23:39:48.573Z,13.00
2023-05-16T23:42:15.971Z,13.00
2023-05-16T23:44:42.952Z,12.90
2023-05-16T23:47:09.924Z,12.90
2023-05-16T23:49:36.900Z,12.90
2023-05-16T23:52:06.056Z,12.80
2023-05-16T23:54:35.962Z,12.80
2023-05-16T23:57:02.948Z,12.80
2023-05-16T23:59:29.852Z,12.90
